sensor_id;sensor_type;location;lat;lon;timestamp;temperature;humidity
12276;DHT22;6200;48.144;11.424;2022-12-10T00:01:30;2.50;99.90
12276;DHT22;6200;48.144;11.424;2022-12-10T00:03:56;2.50;99.90
12276;DHT22;6200;48.144;11.424;2022-12-10T00:06:24;2.40;99.90
12276;DHT22;6200;48.144;11.424;2022-12-10T00:08:50;2.40;99.90
12276;DHT22;6200;48.144;11.424;2022-12-10T00:11:18;2.50;99.90
12276;DHT22;6200;48.144;11.424;2022-12-10T00:13:44;2.50;99.90
12276;DHT22;6200;48.144;11.424;2022-12-10T00:16:11;2.50;99.90
12276;DHT22;6200;48.144;11.424;2022-12-10T00:18:38;2.50;99.90
12276;DHT22;6200;48.144;11.424;2022-12-10T00:21:05;2.50;99.90
12276;DHT22;6200;48.144;11.424;2022-12-10T00:23:32;2.50;99.90
12276;DHT22;6200;48.144;11.424;2022-12-10T00:26:06;2.50;99.90
12276;DHT22;6200;48.144;11.424;2022-12-10T00:28:32;2.50;99.90
12276;DHT22;6200;48.144;11.424;2022-12-10T00:31:09;2.50;99.90
12276;DHT22;6200;48.144;11.424;2022-12-10T00:33:36;2.40;99.90
12276;DHT22;6200;48.144;11.424;2022-12-10T00:36:10;2.50;99.90
12276;DHT22;6200;48.144;11.424;2022-12-10T00:38:37;2.40;99.90
12276;DHT22;6200;48.144;11.424;2022-12-10T00:41:03;2.50;99.90
12276;DHT22;6200;48.144;11.424;2022-12-10T00:43:29;2.40;99.90
12276;DHT22;6200;48.144;11.424;2022-12-10T00:45:55;2.50;99.90
12276;DHT22;6200;48.144;11.424;2022-12-10T00:48:21;2.40;99.90
12276;DHT22;6200;48.144;11.424;2022-12-10T00:51:04;2.40;99.90
12276;DHT22;6200;48.144;11.424;2022-12-10T00:53:32;2.50;99.90
12276;DHT22;6200;48.144;11.424;2022-12-10T00:55:58;2.50;99.90
12276;DHT22;6200;48.144;11.424;2022-12-10T00:58:27;2.50;99.90
12276;DHT22;6200;48.144;11.424;2022-12-10T01:00:53;2.50;99.90
12276;DHT22;6200;48.144;11.424;2022-12-10T01:03:18;2.50;99.90
12276;DHT22;6200;48.144;11.424;2022-12-10T01:05:44;2.40;99.90
12276;DHT22;6200;48.144;11.424;2022-12-10T01:08:10;2.40;99.90
12276;DHT22;6200;48.144;11.424;2022-12-10T01:10:35;2.40;99.90
12276;DHT22;6200;48.144;11.424;2022-12-10T01:13:03;2.40;99.90
12276;DHT22;6200;48.144;11.424;2022-12-10T01:15:29;2.50;99.90
12276;DHT22;6200;48.144;11.424;2022-12-10T01:17:55;2.50;99.90
12276;DHT22;6200;48.144;11.424;2022-12-10T01:20:21;2.50;99.90
12276;DHT22;6200;48.144;11.424;2022-12-10T01:22:46;2.40;99.90
12276;DHT22;6200;48.144;11.424;2022-12-10T01:25:12;2.50;99.90
12276;DHT22;6200;48.144;11.424;2022-12-10T01:27:37;2.40;99.90
12276;DHT22;6200;48.144;11.424;2022-12-10T01:30:03;2.50;99.90
12276;DHT22;6200;48.144;11.424;2022-12-10T01:32:29;2.50;99.90
12276;DHT22;6200;48.144;11.424;2022-12-10T01:34:54;2.40;99.90
12276;DHT22;6200;48.144;11.424;2022-12-10T01:37:20;2.40;99.90
12276;DHT22;6200;48.144;11.424;2022-12-10T01:39:45;2.30;99.90
12276;DHT22;6200;48.144;11.424;2022-12-10T01:42:13;2.50;99.90
12276;DHT22;6200;48.144;11.424;2022-12-10T01:47:08;2.50;99.90
12276;DHT22;6200;48.144;11.424;2022-12-10T01:49:37;2.50;99.90
12276;DHT22;6200;48.144;11.424;2022-12-10T01:52:05;2.50;99.90
12276;DHT22;6200;48.144;11.424;2022-12-10T01:54:38;2.50;99.90
12276;DHT22;6200;48.144;11.424;2022-12-10T01:57:29;2.50;99.90
12276;DHT22;6200;48.144;11.424;2022-12-10T01:59:57;2.40;99.90
12276;DHT22;6200;48.144;11.424;2022-12-10T02:05:21;2.40;99.90
12276;DHT22;6200;48.144;11.424;2022-12-10T02:10:42;2.40;99.90
12276;DHT22;6200;48.144;11.424;2022-12-10T02:13:32;2.40;99.90
12276;DHT22;6200;48.144;11.424;2022-12-10T02:16:12;2.40;99.90
12276;DHT22;6200;48.144;11.424;2022-12-10T02:18:43;2.40;99.90
12276;DHT22;6200;48.144;11.424;2022-12-10T02:21:22;2.40;99.90
12276;DHT22;6200;48.144;11.424;2022-12-10T02:23:54;2.40;99.90
12276;DHT22;6200;48.144;11.424;2022-12-10T02:26:27;2.40;99.90
12276;DHT22;6200;48.144;11.424;2022-12-10T02:29:15;2.40;99.90
12276;DHT22;6200;48.144;11.424;2022-12-10T02:31:46;2.40;99.90
12276;DHT22;6200;48.144;11.424;2022-12-10T02:34:14;2.40;99.90
12276;DHT22;6200;48.144;11.424;2022-12-10T02:36:43;2.40;99.90
12276;DHT22;6200;48.144;11.424;2022-12-10T02:39:13;2.50;99.90
12276;DHT22;6200;48.144;11.424;2022-12-10T02:41:43;2.40;99.90
12276;DHT22;6200;48.144;11.424;2022-12-10T02:44:12;2.40;99.90
12276;DHT22;6200;48.144;11.424;2022-12-10T02:46:39;2.40;99.90
12276;DHT22;6200;48.144;11.424;2022-12-10T02:49:07;2.30;99.90
12276;DHT22;6200;48.144;11.424;2022-12-10T02:51:33;2.40;99.90
12276;DHT22;6200;48.144;11.424;2022-12-10T02:54:06;2.40;99.90
12276;DHT22;6200;48.144;11.424;2022-12-10T02:56:42;2.40;99.90
12276;DHT22;6200;48.144;11.424;2022-12-10T02:59:22;2.40;99.90
12276;DHT22;6200;48.144;11.424;2022-12-10T03:02:06;2.30;99.90
12276;DHT22;6200;48.144;11.424;2022-12-10T03:05:12;2.40;99.90
12276;DHT22;6200;48.144;11.424;2022-12-10T03:08:07;2.40;99.90
12276;DHT22;6200;48.144;11.424;2022-12-10T03:11:01;2.40;99.90
12276;DHT22;6200;48.144;11.424;2022-12-10T03:13:32;2.30;99.90
12276;DHT22;6200;48.144;11.424;2022-12-10T03:16:02;2.30;99.90
12276;DHT22;6200;48.144;11.424;2022-12-10T03:18:30;2.30;99.90
12276;DHT22;6200;48.144;11.424;2022-12-10T03:20:58;2.30;99.90
12276;DHT22;6200;48.144;11.424;2022-12-10T03:23:26;2.30;99.90
12276;DHT22;6200;48.144;11.424;2022-12-10T03:25:52;2.30;99.90
12276;DHT22;6200;48.144;11.424;2022-12-10T03:28:19;2.30;99.90
12276;DHT22;6200;48.144;11.424;2022-12-10T03:30:45;2.30;99.90
12276;DHT22;6200;48.144;11.424;2022-12-10T03:33:11;2.30;99.90
12276;DHT22;6200;48.144;11.424;2022-12-10T03:35:38;2.30;99.90
12276;DHT22;6200;48.144;11.424;2022-12-10T03:38:04;2.20;99.90
12276;DHT22;6200;48.144;11.424;2022-12-10T03:40:31;2.30;99.90
12276;DHT22;6200;48.144;11.424;2022-12-10T03:42:57;2.20;99.90
12276;DHT22;6200;48.144;11.424;2022-12-10T03:45:22;2.20;99.90
12276;DHT22;6200;48.144;11.424;2022-12-10T03:47:48;2.30;99.90
12276;DHT22;6200;48.144;11.424;2022-12-10T03:50:14;2.30;99.90
12276;DHT22;6200;48.144;11.424;2022-12-10T03:52:40;2.30;99.90
12276;DHT22;6200;48.144;11.424;2022-12-10T03:55:06;2.30;99.90
12276;DHT22;6200;48.144;11.424;2022-12-10T03:57:32;2.30;99.90
12276;DHT22;6200;48.144;11.424;2022-12-10T03:59:58;2.30;99.90
12276;DHT22;6200;48.144;11.424;2022-12-10T04:02:23;2.20;99.90
12276;DHT22;6200;48.144;11.424;2022-12-10T04:04:49;2.30;99.90
12276;DHT22;6200;48.144;11.424;2022-12-10T04:07:14;2.30;99.90
12276;DHT22;6200;48.144;11.424;2022-12-10T04:09:40;2.30;99.90
12276;DHT22;6200;48.144;11.424;2022-12-10T04:12:05;2.20;99.90
12276;DHT22;6200;48.144;11.424;2022-12-10T04:14:31;2.20;99.90
12276;DHT22;6200;48.144;11.424;2022-12-10T04:17:15;2.30;99.90
12276;DHT22;6200;48.144;11.424;2022-12-10T04:19:41;2.20;99.90
12276;DHT22;6200;48.144;11.424;2022-12-10T04:22:08;2.30;99.90
12276;DHT22;6200;48.144;11.424;2022-12-10T04:24:52;2.20;99.90
12276;DHT22;6200;48.144;11.424;2022-12-10T04:27:37;2.20;99.90
12276;DHT22;6200;48.144;11.424;2022-12-10T04:30:05;2.20;99.90
12276;DHT22;6200;48.144;11.424;2022-12-10T04:32:31;2.20;99.90
12276;DHT22;6200;48.144;11.424;2022-12-10T04:34:57;2.30;99.90
12276;DHT22;6200;48.144;11.424;2022-12-10T04:37:26;2.30;99.90
12276;DHT22;6200;48.144;11.424;2022-12-10T04:39:52;2.20;99.90
12276;DHT22;6200;48.144;11.424;2022-12-10T04:42:20;2.20;99.90
12276;DHT22;6200;48.144;11.424;2022-12-10T04:44:46;2.30;99.90
12276;DHT22;6200;48.144;11.424;2022-12-10T04:47:12;2.30;99.90
12276;DHT22;6200;48.144;11.424;2022-12-10T04:49:38;2.30;99.90
12276;DHT22;6200;48.144;11.424;2022-12-10T04:52:05;2.30;99.90
12276;DHT22;6200;48.144;11.424;2022-12-10T04:54:31;2.30;99.90
12276;DHT22;6200;48.144;11.424;2022-12-10T04:56:56;2.30;99.90
12276;DHT22;6200;48.144;11.424;2022-12-10T04:59:22;2.30;99.90
12276;DHT22;6200;48.144;11.424;2022-12-10T05:01:48;2.30;99.90
12276;DHT22;6200;48.144;11.424;2022-12-10T05:04:16;0.80;99.90
12276;DHT22;6200;48.144;11.424;2022-12-10T05:06:42;2.30;99.90
12276;DHT22;6200;48.144;11.424;2022-12-10T05:09:09;2.30;99.90
12276;DHT22;6200;48.144;11.424;2022-12-10T05:11:35;2.30;99.90
12276;DHT22;6200;48.144;11.424;2022-12-10T05:14:01;2.30;99.90
12276;DHT22;6200;48.144;11.424;2022-12-10T05:16:29;2.40;99.90
12276;DHT22;6200;48.144;11.424;2022-12-10T05:18:56;2.40;99.90
12276;DHT22;6200;48.144;11.424;2022-12-10T05:21:22;2.30;99.90
12276;DHT22;6200;48.144;11.424;2022-12-10T05:23:51;2.30;99.90
12276;DHT22;6200;48.144;11.424;2022-12-10T05:26:22;2.30;99.90
12276;DHT22;6200;48.144;11.424;2022-12-10T05:28:51;2.30;99.90
12276;DHT22;6200;48.144;11.424;2022-12-10T05:31:26;2.30;99.90
12276;DHT22;6200;48.144;11.424;2022-12-10T05:33:54;2.30;99.90
12276;DHT22;6200;48.144;11.424;2022-12-10T05:36:22;2.30;99.90
12276;DHT22;6200;48.144;11.424;2022-12-10T05:38:48;2.30;99.90
12276;DHT22;6200;48.144;11.424;2022-12-10T05:41:23;2.30;99.90
12276;DHT22;6200;48.144;11.424;2022-12-10T05:43:50;2.30;99.90
12276;DHT22;6200;48.144;11.424;2022-12-10T05:46:22;2.30;99.90
12276;DHT22;6200;48.144;11.424;2022-12-10T05:48:48;2.30;99.90
12276;DHT22;6200;48.144;11.424;2022-12-10T05:51:16;2.30;99.90
12276;DHT22;6200;48.144;11.424;2022-12-10T05:53:42;2.30;99.90
12276;DHT22;6200;48.144;11.424;2022-12-10T05:56:10;2.30;99.90
12276;DHT22;6200;48.144;11.424;2022-12-10T05:58:39;2.30;99.90
12276;DHT22;6200;48.144;11.424;2022-12-10T06:01:08;2.40;99.90
12276;DHT22;6200;48.144;11.424;2022-12-10T06:03:34;2.30;99.90
12276;DHT22;6200;48.144;11.424;2022-12-10T06:05:59;2.30;99.90
12276;DHT22;6200;48.144;11.424;2022-12-10T06:08:25;2.30;99.90
12276;DHT22;6200;48.144;11.424;2022-12-10T06:10:50;2.30;99.90
12276;DHT22;6200;48.144;11.424;2022-12-10T06:13:16;2.30;99.90
12276;DHT22;6200;48.144;11.424;2022-12-10T06:15:42;2.30;99.90
12276;DHT22;6200;48.144;11.424;2022-12-10T06:18:08;2.30;99.90
12276;DHT22;6200;48.144;11.424;2022-12-10T06:20:36;2.30;99.90
12276;DHT22;6200;48.144;11.424;2022-12-10T06:23:02;2.30;99.90
12276;DHT22;6200;48.144;11.424;2022-12-10T06:25:27;2.20;99.90
12276;DHT22;6200;48.144;11.424;2022-12-10T06:27:53;2.20;99.90
12276;DHT22;6200;48.144;11.424;2022-12-10T06:30:18;2.20;99.90
12276;DHT22;6200;48.144;11.424;2022-12-10T06:32:44;2.10;99.90
12276;DHT22;6200;48.144;11.424;2022-12-10T06:35:10;2.10;99.90
12276;DHT22;6200;48.144;11.424;2022-12-10T06:37:36;2.10;99.90
12276;DHT22;6200;48.144;11.424;2022-12-10T06:40:02;2.10;99.90
12276;DHT22;6200;48.144;11.424;2022-12-10T06:42:28;2.10;99.90
12276;DHT22;6200;48.144;11.424;2022-12-10T06:44:53;2.10;99.90
12276;DHT22;6200;48.144;11.424;2022-12-10T06:47:19;2.10;99.90
12276;DHT22;6200;48.144;11.424;2022-12-10T06:49:44;2.10;99.90
12276;DHT22;6200;48.144;11.424;2022-12-10T06:52:10;2.10;99.90
12276;DHT22;6200;48.144;11.424;2022-12-10T06:54:36;2.10;99.90
12276;DHT22;6200;48.144;11.424;2022-12-10T06:57:01;2.10;99.90
12276;DHT22;6200;48.144;11.424;2022-12-10T06:59:27;2.00;99.90
12276;DHT22;6200;48.144;11.424;2022-12-10T07:01:52;2.00;99.90
12276;DHT22;6200;48.144;11.424;2022-12-10T07:04:18;2.10;99.90
12276;DHT22;6200;48.144;11.424;2022-12-10T07:06:44;2.10;99.90
12276;DHT22;6200;48.144;11.424;2022-12-10T07:09:09;2.00;99.90
12276;DHT22;6200;48.144;11.424;2022-12-10T07:11:36;2.10;99.90
12276;DHT22;6200;48.144;11.424;2022-12-10T07:14:02;2.10;99.90
12276;DHT22;6200;48.144;11.424;2022-12-10T07:16:29;2.10;99.90
12276;DHT22;6200;48.144;11.424;2022-12-10T07:18:56;2.10;99.90
12276;DHT22;6200;48.144;11.424;2022-12-10T07:23:51;2.10;99.90
12276;DHT22;6200;48.144;11.424;2022-12-10T07:26:18;2.10;99.90
12276;DHT22;6200;48.144;11.424;2022-12-10T07:28:44;2.20;99.90
12276;DHT22;6200;48.144;11.424;2022-12-10T07:31:09;2.20;99.90
12276;DHT22;6200;48.144;11.424;2022-12-10T07:33:36;2.20;99.90
12276;DHT22;6200;48.144;11.424;2022-12-10T07:36:21;2.20;99.90
12276;DHT22;6200;48.144;11.424;2022-12-10T07:38:48;2.20;99.90
12276;DHT22;6200;48.144;11.424;2022-12-10T07:41:14;2.30;99.90
12276;DHT22;6200;48.144;11.424;2022-12-10T07:43:41;2.30;99.90
12276;DHT22;6200;48.144;11.424;2022-12-10T07:46:16;2.30;99.90
12276;DHT22;6200;48.144;11.424;2022-12-10T07:48:45;2.30;99.90
12276;DHT22;6200;48.144;11.424;2022-12-10T07:51:11;2.30;99.90
12276;DHT22;6200;48.144;11.424;2022-12-10T07:53:37;2.30;99.90
12276;DHT22;6200;48.144;11.424;2022-12-10T07:56:03;2.20;99.90
12276;DHT22;6200;48.144;11.424;2022-12-10T07:58:29;2.30;99.90
12276;DHT22;6200;48.144;11.424;2022-12-10T08:00:54;2.30;99.90
12276;DHT22;6200;48.144;11.424;2022-12-10T08:03:20;2.30;99.90
12276;DHT22;6200;48.144;11.424;2022-12-10T08:05:46;2.30;99.90
12276;DHT22;6200;48.144;11.424;2022-12-10T08:08:11;2.30;99.90
12276;DHT22;6200;48.144;11.424;2022-12-10T08:10:38;2.30;99.90
12276;DHT22;6200;48.144;11.424;2022-12-10T08:13:04;2.30;99.90
12276;DHT22;6200;48.144;11.424;2022-12-10T08:15:30;2.30;99.90
12276;DHT22;6200;48.144;11.424;2022-12-10T08:17:56;2.30;99.90
12276;DHT22;6200;48.144;11.424;2022-12-10T08:20:23;2.30;99.90
12276;DHT22;6200;48.144;11.424;2022-12-10T08:22:48;2.30;99.90
12276;DHT22;6200;48.144;11.424;2022-12-10T08:25:14;2.40;99.90
12276;DHT22;6200;48.144;11.424;2022-12-10T08:27:40;2.40;99.90
12276;DHT22;6200;48.144;11.424;2022-12-10T08:30:06;2.40;99.90
12276;DHT22;6200;48.144;11.424;2022-12-10T08:32:31;2.40;99.90
12276;DHT22;6200;48.144;11.424;2022-12-10T08:34:57;2.40;99.90
12276;DHT22;6200;48.144;11.424;2022-12-10T08:37:22;2.30;99.90
12276;DHT22;6200;48.144;11.424;2022-12-10T08:39:48;2.30;99.90
12276;DHT22;6200;48.144;11.424;2022-12-10T08:42:13;2.30;99.90
12276;DHT22;6200;48.144;11.424;2022-12-10T08:44:39;2.30;99.90
12276;DHT22;6200;48.144;11.424;2022-12-10T08:47:05;2.30;99.90
12276;DHT22;6200;48.144;11.424;2022-12-10T08:49:31;2.30;99.90
12276;DHT22;6200;48.144;11.424;2022-12-10T08:51:56;2.30;99.90
12276;DHT22;6200;48.144;11.424;2022-12-10T08:54:22;2.40;99.90
12276;DHT22;6200;48.144;11.424;2022-12-10T08:56:47;2.40;99.90
12276;DHT22;6200;48.144;11.424;2022-12-10T08:59:13;2.40;99.90
12276;DHT22;6200;48.144;11.424;2022-12-10T09:01:38;2.40;99.90
12276;DHT22;6200;48.144;11.424;2022-12-10T09:04:04;2.40;99.90
12276;DHT22;6200;48.144;11.424;2022-12-10T09:06:30;2.40;99.90
12276;DHT22;6200;48.144;11.424;2022-12-10T09:08:57;2.50;99.90
12276;DHT22;6200;48.144;11.424;2022-12-10T09:11:26;2.50;99.90
12276;DHT22;6200;48.144;11.424;2022-12-10T09:13:53;2.40;99.90
12276;DHT22;6200;48.144;11.424;2022-12-10T09:16:19;2.40;99.90
12276;DHT22;6200;48.144;11.424;2022-12-10T09:18:44;2.40;99.90
12276;DHT22;6200;48.144;11.424;2022-12-10T09:21:13;2.40;99.90
12276;DHT22;6200;48.144;11.424;2022-12-10T09:23:40;2.40;99.90
12276;DHT22;6200;48.144;11.424;2022-12-10T09:26:11;2.40;99.90
12276;DHT22;6200;48.144;11.424;2022-12-10T09:28:38;2.50;99.90
12276;DHT22;6200;48.144;11.424;2022-12-10T09:31:04;2.50;99.90
12276;DHT22;6200;48.144;11.424;2022-12-10T09:33:31;2.50;99.90
12276;DHT22;6200;48.144;11.424;2022-12-10T09:35:57;2.50;99.90
12276;DHT22;6200;48.144;11.424;2022-12-10T09:38:23;2.40;99.90
12276;DHT22;6200;48.144;11.424;2022-12-10T09:46:52;2.40;99.90
12276;DHT22;6200;48.144;11.424;2022-12-10T09:52:05;2.50;99.90
12276;DHT22;6200;48.144;11.424;2022-12-10T09:57:00;2.50;99.90
12276;DHT22;6200;48.144;11.424;2022-12-10T09:59:32;2.50;99.90
12276;DHT22;6200;48.144;11.424;2022-12-10T10:02:26;2.50;99.90
12276;DHT22;6200;48.144;11.424;2022-12-10T10:05:11;2.50;99.90
12276;DHT22;6200;48.144;11.424;2022-12-10T10:07:44;2.50;99.90
12276;DHT22;6200;48.144;11.424;2022-12-10T10:10:40;2.50;99.90
12276;DHT22;6200;48.144;11.424;2022-12-10T10:15:36;2.50;99.90
12276;DHT22;6200;48.144;11.424;2022-12-10T10:20:35;2.50;99.90
12276;DHT22;6200;48.144;11.424;2022-12-10T10:23:01;2.50;99.90
12276;DHT22;6200;48.144;11.424;2022-12-10T10:25:27;2.50;99.90
12276;DHT22;6200;48.144;11.424;2022-12-10T10:27:54;2.50;99.90
12276;DHT22;6200;48.144;11.424;2022-12-10T10:30:21;2.50;99.90
12276;DHT22;6200;48.144;11.424;2022-12-10T10:32:54;2.50;99.90
12276;DHT22;6200;48.144;11.424;2022-12-10T10:35:34;2.50;99.90
12276;DHT22;6200;48.144;11.424;2022-12-10T10:38:13;2.50;99.90
12276;DHT22;6200;48.144;11.424;2022-12-10T10:40:42;2.50;99.90
12276;DHT22;6200;48.144;11.424;2022-12-10T10:43:24;2.50;99.90
12276;DHT22;6200;48.144;11.424;2022-12-10T10:46:12;2.60;99.90
12276;DHT22;6200;48.144;11.424;2022-12-10T10:48:38;2.60;99.90
12276;DHT22;6200;48.144;11.424;2022-12-10T10:56:22;2.60;99.90
12276;DHT22;6200;48.144;11.424;2022-12-10T11:01:50;2.60;99.90
12276;DHT22;6200;48.144;11.424;2022-12-10T11:04:27;2.60;99.90
12276;DHT22;6200;48.144;11.424;2022-12-10T11:06:55;2.70;99.90
12276;DHT22;6200;48.144;11.424;2022-12-10T11:09:26;2.60;99.90
12276;DHT22;6200;48.144;11.424;2022-12-10T11:12:06;2.70;99.90
12276;DHT22;6200;48.144;11.424;2022-12-10T11:14:39;2.70;99.90
12276;DHT22;6200;48.144;11.424;2022-12-10T11:19:41;2.70;99.90
12276;DHT22;6200;48.144;11.424;2022-12-10T11:22:24;2.70;99.90
12276;DHT22;6200;48.144;11.424;2022-12-10T11:24:50;2.70;99.90
12276;DHT22;6200;48.144;11.424;2022-12-10T11:30:22;2.70;99.90
12276;DHT22;6200;48.144;11.424;2022-12-10T11:33:15;2.70;99.90
12276;DHT22;6200;48.144;11.424;2022-12-10T11:35:59;2.80;99.90
12276;DHT22;6200;48.144;11.424;2022-12-10T11:39:10;2.80;99.90
12276;DHT22;6200;48.144;11.424;2022-12-10T11:41:53;2.80;99.90
12276;DHT22;6200;48.144;11.424;2022-12-10T11:44:42;2.70;99.90
12276;DHT22;6200;48.144;11.424;2022-12-10T11:50:00;5.10;99.90
12276;DHT22;6200;48.144;11.424;2022-12-10T11:55:59;2.80;99.90
12276;DHT22;6200;48.144;11.424;2022-12-10T11:58:58;2.80;99.90
12276;DHT22;6200;48.144;11.424;2022-12-10T12:09:57;2.70;99.90
12276;DHT22;6200;48.144;11.424;2022-12-10T12:12:45;2.70;99.90
12276;DHT22;6200;48.144;11.424;2022-12-10T12:15:29;2.60;99.90
12276;DHT22;6200;48.144;11.424;2022-12-10T12:18:20;2.60;99.90
12276;DHT22;6200;48.144;11.424;2022-12-10T12:21:00;2.60;99.90
12276;DHT22;6200;48.144;11.424;2022-12-10T12:23:58;2.60;99.90
12276;DHT22;6200;48.144;11.424;2022-12-10T12:26:35;2.50;99.90
12276;DHT22;6200;48.144;11.424;2022-12-10T12:29:23;2.50;99.90
12276;DHT22;6200;48.144;11.424;2022-12-10T12:35:17;2.50;99.90
12276;DHT22;6200;48.144;11.424;2022-12-10T12:37:56;2.50;99.90
12276;DHT22;6200;48.144;11.424;2022-12-10T12:40:40;2.50;99.90
12276;DHT22;6200;48.144;11.424;2022-12-10T12:43:13;2.50;99.90
12276;DHT22;6200;48.144;11.424;2022-12-10T12:45:42;2.20;99.90
12276;DHT22;6200;48.144;11.424;2022-12-10T12:48:40;2.50;99.90
12276;DHT22;6200;48.144;11.424;2022-12-10T12:51:09;2.50;99.90
12276;DHT22;6200;48.144;11.424;2022-12-10T12:53:35;2.50;99.90
12276;DHT22;6200;48.144;11.424;2022-12-10T12:56:35;2.60;99.90
12276;DHT22;6200;48.144;11.424;2022-12-10T13:00:01;2.60;99.90
12276;DHT22;6200;48.144;11.424;2022-12-10T13:02:11;2.60;99.90
12276;DHT22;6200;48.144;11.424;2022-12-10T13:04:41;2.50;99.90
12276;DHT22;6200;48.144;11.424;2022-12-10T13:22:58;2.50;99.90
12276;DHT22;6200;48.144;11.424;2022-12-10T13:25:54;2.50;99.90
12276;DHT22;6200;48.144;11.424;2022-12-10T13:36:20;2.50;99.90
12276;DHT22;6200;48.144;11.424;2022-12-10T13:41:39;1.40;99.90
12276;DHT22;6200;48.144;11.424;2022-12-10T13:44:45;2.40;99.90
12276;DHT22;6200;48.144;11.424;2022-12-10T13:50:14;2.40;99.90
12276;DHT22;6200;48.144;11.424;2022-12-10T13:53:03;2.40;99.90
12276;DHT22;6200;48.144;11.424;2022-12-10T14:01:42;2.40;99.90
12276;DHT22;6200;48.144;11.424;2022-12-10T14:06:57;2.30;99.90
12276;DHT22;6200;48.144;11.424;2022-12-10T14:09:27;2.30;99.90
12276;DHT22;6200;48.144;11.424;2022-12-10T14:11:57;2.30;99.90
12276;DHT22;6200;48.144;11.424;2022-12-10T14:14:41;2.30;99.90
12276;DHT22;6200;48.144;11.424;2022-12-10T14:17:20;2.30;99.90
12276;DHT22;6200;48.144;11.424;2022-12-10T14:19:49;2.30;99.90
12276;DHT22;6200;48.144;11.424;2022-12-10T14:22:25;2.30;99.90
12276;DHT22;6200;48.144;11.424;2022-12-10T14:24:59;2.30;99.90
12276;DHT22;6200;48.144;11.424;2022-12-10T14:27:27;2.30;99.90
12276;DHT22;6200;48.144;11.424;2022-12-10T14:30:19;2.20;99.90
12276;DHT22;6200;48.144;11.424;2022-12-10T14:32:44;2.30;99.90
12276;DHT22;6200;48.144;11.424;2022-12-10T14:35:21;2.20;99.90
12276;DHT22;6200;48.144;11.424;2022-12-10T14:37:49;2.30;99.90
12276;DHT22;6200;48.144;11.424;2022-12-10T14:40:42;2.30;99.90
12276;DHT22;6200;48.144;11.424;2022-12-10T14:43:20;2.30;99.90
12276;DHT22;6200;48.144;11.424;2022-12-10T14:45:59;2.30;99.90
12276;DHT22;6200;48.144;11.424;2022-12-10T14:48:26;2.20;99.90
12276;DHT22;6200;48.144;11.424;2022-12-10T14:50:53;2.30;99.90
12276;DHT22;6200;48.144;11.424;2022-12-10T14:53:26;2.20;99.90
12276;DHT22;6200;48.144;11.424;2022-12-10T14:56:01;2.20;99.90
12276;DHT22;6200;48.144;11.424;2022-12-10T15:01:05;2.20;99.90
12276;DHT22;6200;48.144;11.424;2022-12-10T15:03:35;2.20;99.90
12276;DHT22;6200;48.144;11.424;2022-12-10T15:06:07;2.20;99.90
12276;DHT22;6200;48.144;11.424;2022-12-10T15:08:34;2.20;99.90
12276;DHT22;6200;48.144;11.424;2022-12-10T15:11:01;2.20;99.90
12276;DHT22;6200;48.144;11.424;2022-12-10T15:13:38;2.10;99.90
12276;DHT22;6200;48.144;11.424;2022-12-10T15:16:05;2.10;99.90
12276;DHT22;6200;48.144;11.424;2022-12-10T15:18:37;2.10;99.90
12276;DHT22;6200;48.144;11.424;2022-12-10T15:23:33;2.10;99.90
12276;DHT22;6200;48.144;11.424;2022-12-10T15:26:21;2.20;99.90
12276;DHT22;6200;48.144;11.424;2022-12-10T15:28:49;2.20;99.90
12276;DHT22;6200;48.144;11.424;2022-12-10T15:33:54;2.20;99.90
12276;DHT22;6200;48.144;11.424;2022-12-10T15:36:31;2.20;99.90
12276;DHT22;6200;48.144;11.424;2022-12-10T15:41:49;2.10;99.90
12276;DHT22;6200;48.144;11.424;2022-12-10T15:47:17;2.10;99.90
12276;DHT22;6200;48.144;11.424;2022-12-10T15:49:45;2.10;99.90
12276;DHT22;6200;48.144;11.424;2022-12-10T15:52:19;2.00;99.90
12276;DHT22;6200;48.144;11.424;2022-12-10T15:54:47;2.00;99.90
12276;DHT22;6200;48.144;11.424;2022-12-10T15:59:40;1.90;99.90
12276;DHT22;6200;48.144;11.424;2022-12-10T16:04:48;1.90;99.90
12276;DHT22;6200;48.144;11.424;2022-12-10T16:07:15;1.90;99.90
12276;DHT22;6200;48.144;11.424;2022-12-10T16:09:41;1.90;99.90
12276;DHT22;6200;48.144;11.424;2022-12-10T16:12:15;1.90;99.90
12276;DHT22;6200;48.144;11.424;2022-12-10T16:14:49;1.90;99.90
12276;DHT22;6200;48.144;11.424;2022-12-10T16:17:16;1.80;99.90
12276;DHT22;6200;48.144;11.424;2022-12-10T16:19:42;1.90;99.90
12276;DHT22;6200;48.144;11.424;2022-12-10T16:22:08;1.80;99.90
12276;DHT22;6200;48.144;11.424;2022-12-10T16:24:34;1.80;99.90
12276;DHT22;6200;48.144;11.424;2022-12-10T16:26:59;1.80;99.90
12276;DHT22;6200;48.144;11.424;2022-12-10T16:29:25;1.80;99.90
12276;DHT22;6200;48.144;11.424;2022-12-10T16:31:50;1.80;99.90
12276;DHT22;6200;48.144;11.424;2022-12-10T16:34:16;1.80;99.90
12276;DHT22;6200;48.144;11.424;2022-12-10T16:36:41;1.80;99.90
12276;DHT22;6200;48.144;11.424;2022-12-10T16:39:07;1.80;99.90
12276;DHT22;6200;48.144;11.424;2022-12-10T16:41:35;1.70;99.90
12276;DHT22;6200;48.144;11.424;2022-12-10T16:44:01;1.70;99.90
12276;DHT22;6200;48.144;11.424;2022-12-10T16:46:26;1.70;99.90
12276;DHT22;6200;48.144;11.424;2022-12-10T16:48:52;1.70;99.90
12276;DHT22;6200;48.144;11.424;2022-12-10T16:51:26;1.70;99.90
12276;DHT22;6200;48.144;11.424;2022-12-10T16:53:54;1.70;99.90
12276;DHT22;6200;48.144;11.424;2022-12-10T16:56:20;1.70;99.90
12276;DHT22;6200;48.144;11.424;2022-12-10T16:58:46;1.70;99.90
12276;DHT22;6200;48.144;11.424;2022-12-10T17:01:19;2.90;99.90
12276;DHT22;6200;48.144;11.424;2022-12-10T17:03:45;1.70;99.90
12276;DHT22;6200;48.144;11.424;2022-12-10T17:06:11;1.70;99.90
12276;DHT22;6200;48.144;11.424;2022-12-10T17:08:37;1.70;99.90
12276;DHT22;6200;48.144;11.424;2022-12-10T17:11:24;1.70;99.90
12276;DHT22;6200;48.144;11.424;2022-12-10T17:14:22;1.70;99.90
12276;DHT22;6200;48.144;11.424;2022-12-10T17:16:48;1.70;99.90
12276;DHT22;6200;48.144;11.424;2022-12-10T17:19:14;1.60;99.90
12276;DHT22;6200;48.144;11.424;2022-12-10T17:21:39;1.50;99.90
12276;DHT22;6200;48.144;11.424;2022-12-10T17:24:06;1.50;99.90
12276;DHT22;6200;48.144;11.424;2022-12-10T17:26:34;1.50;99.90
12276;DHT22;6200;48.144;11.424;2022-12-10T17:29:08;1.50;99.90
12276;DHT22;6200;48.144;11.424;2022-12-10T17:31:35;1.40;99.90
12276;DHT22;6200;48.144;11.424;2022-12-10T17:34:01;1.40;99.90
12276;DHT22;6200;48.144;11.424;2022-12-10T17:36:27;1.40;99.90
12276;DHT22;6200;48.144;11.424;2022-12-10T17:38:52;1.40;99.90
12276;DHT22;6200;48.144;11.424;2022-12-10T17:41:18;1.40;99.90
12276;DHT22;6200;48.144;11.424;2022-12-10T17:43:43;1.40;99.90
12276;DHT22;6200;48.144;11.424;2022-12-10T17:46:11;1.40;99.90
12276;DHT22;6200;48.144;11.424;2022-12-10T17:48:37;1.40;99.90
12276;DHT22;6200;48.144;11.424;2022-12-10T17:51:04;1.40;99.90
12276;DHT22;6200;48.144;11.424;2022-12-10T17:53:29;1.40;99.90
12276;DHT22;6200;48.144;11.424;2022-12-10T17:55:58;1.40;99.90
12276;DHT22;6200;48.144;11.424;2022-12-10T17:58:24;1.30;99.90
12276;DHT22;6200;48.144;11.424;2022-12-10T18:00:51;1.30;99.90